createdAt,value
2023-02-13T00:01:59.993Z,63.63
2023-02-13T00:05:01.729Z,63.65
2023-02-13T00:08:03.616Z,63.61
2023-02-13T00:11:05.472Z,63.89
2023-02-13T00:14:07.060Z,63.73
2023-02-13T00:17:08.625Z,63.76
2023-02-13T00:20:11.502Z,63.73
2023-02-13T00:23:13.082Z,63.83
2023-02-13T00:26:16.813Z,63.74
2023-02-13T00:29:18.455Z,63.89
2023-02-13T00:32:20.064Z,63.90
2023-02-13T00:35:21.614Z,63.77
2023-02-13T00:38:23.134Z,63.92
2023-02-13T00:41:24.749Z,63.83
2023-02-13T00:44:26.327Z,63.94
2023-02-13T00:47:27.911Z,63.85
2023-02-13T00:50:29.447Z,63.97
2023-02-13T00:53:31.640Z,64.03
2023-02-13T00:56:33.681Z,64.03
2023-02-13T00:59:35.217Z,64.05
2023-02-13T01:02:36.839Z,63.91
2023-02-13T01:05:38.477Z,64.11
2023-02-13T01:08:40.801Z,64.02
2023-02-13T01:11:42.373Z,64.04
2023-02-13T01:14:43.868Z,64.15
2023-02-13T01:17:45.488Z,64.05
2023-02-13T01:20:57.755Z,64.15
2023-02-13T01:24:03.787Z,64.13
2023-02-13T01:27:05.365Z,64.13
2023-02-13T01:30:11.775Z,64.19
2023-02-13T01:33:13.523Z,64.22
2023-02-13T01:36:15.540Z,64.28
2023-02-13T01:39:17.079Z,64.10
2023-02-13T01:42:26.092Z,64.10
2023-02-13T01:45:30.166Z,64.18
2023-02-13T01:48:32.524Z,64.20
2023-02-13T01:51:36.574Z,64.26
2023-02-13T01:54:38.606Z,64.10
2023-02-13T01:57:43.227Z,64.18
2023-02-13T02:00:49.951Z,64.30
2023-02-13T02:04:04.785Z,64.33
2023-02-13T02:07:14.572Z,64.36
2023-02-13T02:10:18.770Z,64.25
2023-02-13T02:13:21.910Z,64.15
2023-02-13T02:16:25.305Z,64.33
2023-02-13T02:19:42.356Z,64.39
2023-02-13T02:23:39.602Z,64.42
2023-02-13T02:27:08.979Z,64.40
2023-02-13T02:30:22.275Z,64.35
2023-02-13T02:33:32.896Z,64.34
2023-02-13T02:36:43.584Z,64.40
2023-02-13T02:40:18.906Z,64.36
2023-02-13T02:43:38.657Z,64.35
2023-02-13T02:47:10.194Z,64.26
2023-02-13T02:50:20.331Z,64.42
2023-02-13T02:53:59.039Z,64.36
2023-02-13T02:57:06.225Z,64.31
2023-02-13T03:00:37.701Z,64.45
2023-02-13T03:03:58.696Z,64.45
2023-02-13T03:07:05.006Z,64.36
2023-02-13T03:10:31.855Z,64.43
2023-02-13T03:13:41.027Z,64.36
2023-02-13T03:17:01.177Z,64.40
2023-02-13T03:20:27.187Z,64.28
2023-02-13T03:23:40.803Z,64.25
2023-02-13T03:26:56.753Z,64.38
2023-02-13T03:30:11.703Z,64.35
2023-02-13T03:33:50.688Z,64.52
2023-02-13T03:37:24.396Z,64.33
2023-02-13T03:41:09.045Z,64.42
2023-02-13T03:44:26.717Z,64.38
2023-02-13T03:47:28.441Z,64.44
2023-02-13T03:50:30.034Z,64.43
2023-02-13T03:53:36.070Z,64.47
2023-02-13T03:56:59.902Z,64.50
2023-02-13T04:00:04.079Z,64.48
2023-02-13T04:03:22.598Z,64.47
2023-02-13T04:06:35.796Z,64.44
2023-02-13T04:09:42.955Z,64.45
2023-02-13T04:13:03.288Z,64.52
2023-02-13T04:16:18.365Z,64.40
2023-02-13T04:19:21.151Z,65.29
2023-02-13T04:22:22.709Z,64.79
2023-02-13T04:25:24.283Z,64.58
2023-02-13T04:28:26.005Z,64.49
2023-02-13T04:31:27.716Z,64.54
2023-02-13T04:34:29.285Z,64.53
2023-02-13T04:37:30.887Z,64.45
2023-02-13T04:40:32.564Z,64.06
2023-02-13T04:43:34.298Z,64.63
2023-02-13T04:46:35.889Z,64.62
2023-02-13T04:49:37.436Z,64.52
2023-02-13T04:52:38.972Z,64.50
2023-02-13T04:55:40.583Z,64.65
2023-02-13T04:58:42.110Z,64.55
2023-02-13T05:01:43.895Z,64.61
2023-02-13T05:04:45.610Z,64.55
2023-02-13T05:07:47.321Z,64.75
2023-02-13T05:10:48.858Z,64.65
2023-02-13T05:13:50.420Z,64.56
2023-02-13T05:16:51.996Z,64.59
2023-02-13T05:19:53.502Z,64.56
2023-02-13T05:23:13.992Z,64.51
2023-02-13T05:26:15.557Z,64.53
2023-02-13T05:29:19.931Z,64.54
2023-02-13T05:32:21.507Z,64.63
2023-02-13T05:35:24.883Z,64.66
2023-02-13T05:38:26.531Z,64.58
2023-02-13T05:41:28.081Z,64.70
2023-02-13T05:44:29.607Z,64.61
2023-02-13T05:47:31.162Z,64.59
2023-02-13T05:50:32.763Z,64.66
2023-02-13T05:53:37.233Z,64.64
2023-02-13T05:56:38.816Z,64.54
2023-02-13T05:59:40.412Z,64.69
2023-02-13T06:02:41.964Z,64.58
2023-02-13T06:05:43.563Z,64.62
2023-02-13T06:08:45.154Z,64.75
2023-02-13T06:11:46.682Z,64.59
2023-02-13T06:14:48.270Z,64.76
2023-02-13T06:17:49.827Z,64.71
2023-02-13T06:20:51.389Z,64.54
2023-02-13T06:23:52.945Z,64.62
2023-02-13T06:26:54.493Z,64.63
2023-02-13T06:29:56.028Z,64.83
2023-02-13T06:32:57.674Z,64.59
2023-02-13T06:35:59.341Z,64.65
2023-02-13T06:39:00.890Z,64.67
2023-02-13T06:42:02.467Z,64.64
2023-02-13T06:45:04.324Z,64.75
2023-02-13T06:48:06.423Z,64.65
2023-02-13T06:51:07.975Z,64.69
2023-02-13T06:54:09.514Z,64.54
2023-02-13T06:57:11.074Z,64.63
2023-02-13T07:00:15.212Z,64.63
2023-02-13T07:03:16.924Z,64.67
2023-02-13T07:06:19.968Z,64.69
2023-02-13T07:09:21.524Z,64.66
2023-02-13T07:12:23.083Z,64.66
2023-02-13T07:15:24.684Z,64.60
2023-02-13T07:18:26.879Z,64.69
2023-02-13T07:21:28.460Z,64.74
2023-02-13T07:24:30.030Z,64.63
2023-02-13T07:27:31.626Z,64.64
2023-02-13T07:30:34.517Z,64.73
2023-02-13T07:33:36.320Z,64.61
2023-02-13T07:36:37.893Z,64.68
2023-02-13T07:39:39.546Z,64.68
2023-02-13T07:42:41.358Z,64.71
2023-02-13T07:45:43.001Z,64.67
2023-02-13T07:48:44.708Z,64.60
2023-02-13T07:51:46.265Z,64.68
2023-02-13T07:54:48.158Z,64.74
2023-02-13T07:57:50.634Z,64.67
2023-02-13T08:00:54.540Z,64.68
2023-02-13T08:03:56.149Z,64.65
2023-02-13T08:06:57.723Z,64.69
2023-02-13T08:10:17.830Z,64.67
2023-02-13T08:13:19.402Z,64.65
2023-02-13T08:16:20.925Z,64.63
2023-02-13T08:19:22.538Z,64.79
2023-02-13T08:22:24.660Z,64.77
2023-02-13T08:25:26.224Z,64.75
2023-02-13T08:28:29.448Z,64.80
2023-02-13T08:31:31.186Z,64.59
2023-02-13T08:34:32.868Z,64.79
2023-02-13T08:37:34.419Z,64.74
2023-02-13T08:40:35.946Z,64.73
2023-02-13T08:43:37.489Z,64.77
2023-02-13T08:46:39.114Z,64.84
2023-02-13T08:49:40.714Z,64.83
2023-02-13T08:52:42.262Z,64.82
2023-02-13T08:55:43.820Z,64.69
2023-02-13T08:58:48.817Z,64.87
2023-02-13T09:01:50.612Z,64.81
2023-02-13T09:04:52.269Z,64.91
2023-02-13T09:07:53.887Z,64.72
2023-02-13T09:11:01.347Z,64.76
2023-02-13T09:14:02.996Z,64.92
2023-02-13T09:17:04.570Z,64.84
2023-02-13T09:20:06.972Z,64.78
2023-02-13T09:23:08.548Z,64.87
2023-02-13T09:26:13.188Z,64.94
2023-02-13T09:29:14.733Z,64.91
2023-02-13T09:32:17.186Z,64.95
2023-02-13T09:35:19.771Z,64.71
2023-02-13T09:38:21.339Z,65.00
2023-02-13T09:41:25.690Z,64.84
2023-02-13T09:44:43.587Z,64.84
2023-02-13T09:47:45.600Z,64.83
2023-02-13T09:50:47.166Z,64.91
2023-02-13T09:53:57.698Z,64.75
2023-02-13T09:57:20.675Z,64.82
2023-02-13T10:00:32.741Z,64.79
2023-02-13T10:03:36.835Z,64.77
2023-02-13T10:06:50.462Z,64.93
2023-02-13T10:10:04.663Z,64.82
2023-02-13T10:13:48.106Z,64.95
2023-02-13T10:16:58.833Z,64.72
2023-02-13T10:20:05.640Z,64.79
2023-02-13T10:23:19.420Z,64.86
2023-02-13T10:26:42.479Z,64.82
2023-02-13T10:30:05.729Z,64.96
2023-02-13T10:33:23.215Z,64.85
2023-02-13T10:36:31.392Z,64.84
2023-02-13T10:39:32.968Z,64.95
2023-02-13T10:42:43.450Z,64.86
2023-02-13T10:46:01.224Z,64.81
2023-02-13T10:49:29.008Z,64.76
2023-02-13T10:52:33.334Z,64.82
2023-02-13T10:55:58.092Z,64.80
2023-02-13T10:59:07.274Z,64.82
2023-02-13T11:02:24.004Z,64.93
2023-02-13T11:05:31.575Z,64.80
2023-02-13T11:08:38.858Z,64.92
2023-02-13T11:11:43.491Z,64.72
2023-02-13T11:14:58.498Z,64.77
2023-02-13T11:18:13.235Z,64.73
2023-02-13T11:21:23.589Z,64.71
2023-02-13T11:24:27.360Z,64.75
2023-02-13T11:27:36.905Z,64.73
2023-02-13T11:30:39.502Z,64.66
2023-02-13T11:33:41.717Z,64.78
2023-02-13T11:36:43.559Z,64.75
2023-02-13T11:39:49.554Z,64.69
2023-02-13T11:42:52.467Z,64.58
2023-02-13T11:46:27.937Z,64.67
2023-02-13T11:49:33.412Z,64.70
2023-02-13T11:52:36.543Z,64.64
2023-02-13T11:55:40.671Z,64.68
2023-02-13T11:58:43.491Z,64.65
2023-02-13T12:01:49.304Z,64.64
2023-02-13T12:04:54.010Z,64.65
2023-02-13T12:07:59.868Z,64.49
2023-02-13T12:11:04.027Z,64.65
2023-02-13T12:14:05.977Z,64.64
2023-02-13T12:17:25.550Z,64.71
2023-02-13T12:21:01.279Z,64.61
2023-02-13T12:24:42.117Z,64.47
2023-02-13T12:28:08.671Z,64.59
2023-02-13T12:31:16.141Z,64.54
2023-02-13T12:34:35.993Z,64.38
2023-02-13T12:37:50.303Z,64.46
2023-02-13T12:41:21.972Z,64.46
2023-02-13T12:44:48.908Z,64.41
2023-02-13T12:48:24.542Z,64.42
2023-02-13T12:51:34.842Z,64.37
2023-02-13T12:54:48.597Z,64.50
2023-02-13T12:57:56.063Z,64.46
2023-02-13T13:01:03.950Z,64.38
2023-02-13T13:04:11.602Z,64.47
2023-02-13T13:07:38.342Z,64.42
2023-02-13T13:11:21.523Z,64.50
2023-02-13T13:14:35.247Z,64.20
2023-02-13T13:18:32.386Z,64.44
2023-02-13T13:21:53.250Z,64.30
2023-02-13T13:25:03.949Z,64.40
2023-02-13T13:28:15.690Z,64.40
2023-02-13T13:31:17.613Z,64.44
2023-02-13T13:34:23.870Z,64.45
2023-02-13T13:37:46.858Z,64.26
2023-02-13T13:40:56.950Z,64.36
2023-02-13T13:44:29.896Z,64.34
2023-02-13T13:47:37.418Z,64.38
2023-02-13T13:50:41.910Z,64.33
2023-02-13T13:54:06.552Z,64.11
2023-02-13T13:57:09.424Z,64.38
2023-02-13T14:00:14.165Z,64.37
2023-02-13T14:03:36.465Z,64.32
2023-02-13T14:06:47.408Z,64.33
2023-02-13T14:09:49.225Z,64.36
2023-02-13T14:13:02.637Z,64.32
2023-02-13T14:16:07.145Z,64.19
2023-02-13T14:19:38.477Z,64.20
2023-02-13T14:22:41.323Z,64.23
2023-02-13T14:25:43.170Z,64.17
2023-02-13T14:28:47.433Z,64.39
2023-02-13T14:32:33.644Z,64.26
2023-02-13T14:35:38.061Z,64.19
2023-02-13T14:38:39.695Z,64.15
2023-02-13T14:41:54.038Z,64.23
2023-02-13T14:45:03.089Z,64.31
2023-02-13T14:48:13.743Z,64.27
2023-02-13T14:51:28.841Z,64.00
2023-02-13T14:54:38.454Z,64.13
2023-02-13T14:57:45.119Z,64.21
2023-02-13T15:00:55.228Z,64.03
2023-02-13T15:04:12.698Z,64.28
2023-02-13T15:07:24.680Z,64.28
2023-02-13T15:10:47.088Z,64.27
2023-02-13T15:13:49.052Z,64.72
2023-02-13T15:16:59.151Z,64.24
2023-02-13T15:20:12.747Z,64.31
2023-02-13T15:23:27.013Z,64.25
2023-02-13T15:26:29.573Z,64.23
2023-02-13T15:29:44.349Z,64.32
2023-02-13T15:33:00.387Z,64.17
2023-02-13T15:36:06.205Z,64.09
2023-02-13T15:39:09.842Z,64.49
2023-02-13T15:42:13.012Z,64.33
2023-02-13T15:45:17.568Z,64.33
2023-02-13T15:48:19.289Z,64.44
2023-02-13T15:51:29.799Z,64.35
2023-02-13T15:54:33.432Z,64.21
2023-02-13T15:57:35.160Z,64.34
2023-02-13T16:00:41.350Z,64.31
2023-02-13T16:03:46.235Z,64.41
2023-02-13T16:06:50.955Z,64.28
2023-02-13T16:09:52.649Z,64.48
2023-02-13T16:12:56.336Z,64.44
2023-02-13T16:16:09.549Z,64.36
2023-02-13T16:19:30.063Z,64.46
2023-02-13T16:22:31.588Z,64.36
2023-02-13T16:25:34.667Z,64.23
2023-02-13T16:28:37.953Z,64.10
2023-02-13T16:31:40.784Z,64.14
2023-02-13T16:34:42.405Z,64.12
2023-02-13T16:37:53.245Z,64.09
2023-02-13T16:40:57.294Z,64.07
2023-02-13T16:44:03.993Z,64.03
2023-02-13T16:47:06.325Z,64.17
2023-02-13T16:50:16.009Z,64.00
2023-02-13T16:53:17.657Z,64.14
2023-02-13T16:56:19.314Z,64.09
2023-02-13T16:59:22.838Z,64.16
2023-02-13T17:02:32.090Z,64.27
2023-02-13T17:05:33.621Z,64.25
2023-02-13T17:08:35.165Z,64.00
2023-02-13T17:11:36.717Z,64.00
2023-02-13T17:14:38.275Z,64.04
2023-02-13T17:17:40.030Z,63.81
2023-02-13T17:20:45.198Z,63.89
2023-02-13T17:23:48.022Z,64.05
2023-02-13T17:26:49.549Z,64.04
2023-02-13T17:29:51.315Z,64.03
2023-02-13T17:33:00.386Z,63.91
2023-02-13T17:36:01.952Z,63.95
2023-02-13T17:39:03.518Z,63.83
2023-02-13T17:42:05.061Z,63.66
2023-02-13T17:45:06.950Z,63.78
2023-02-13T17:48:08.782Z,63.67
2023-02-13T17:51:14.637Z,63.52
2023-02-13T17:54:16.255Z,63.51
2023-02-13T17:57:19.180Z,63.43
2023-02-13T18:00:21.549Z,63.57
2023-02-13T18:03:23.110Z,63.54
2023-02-13T18:06:24.631Z,63.47
2023-02-13T18:09:26.180Z,63.37
2023-02-13T18:12:28.325Z,63.46
2023-02-13T18:15:40.748Z,63.67
2023-02-13T18:18:42.328Z,63.70
2023-02-13T18:21:43.863Z,63.61
2023-02-13T18:24:45.402Z,63.71
2023-02-13T18:27:47.226Z,63.58
2023-02-13T18:30:48.934Z,63.48
2023-02-13T18:33:50.548Z,63.44
2023-02-13T18:36:52.137Z,63.61
2023-02-13T18:39:53.757Z,63.67
2023-02-13T18:42:55.337Z,63.74
2023-02-13T18:45:56.992Z,63.54
2023-02-13T18:48:58.718Z,63.55
2023-02-13T18:52:01.643Z,63.65
2023-02-13T18:55:06.343Z,63.57
2023-02-13T18:58:08.048Z,63.60
2023-02-13T19:01:16.437Z,63.35
2023-02-13T19:04:18.074Z,63.41
2023-02-13T19:07:19.613Z,63.45
2023-02-13T19:10:21.163Z,63.48
2023-02-13T19:13:22.728Z,63.50
2023-02-13T19:16:25.155Z,63.62
2023-02-13T19:19:26.703Z,63.39
2023-02-13T19:22:28.573Z,63.34
2023-02-13T19:25:30.144Z,63.23
2023-02-13T19:28:31.740Z,63.50
2023-02-13T19:31:33.690Z,63.47
2023-02-13T19:34:35.280Z,63.59
2023-02-13T19:37:43.868Z,63.50
2023-02-13T19:40:46.100Z,63.47
2023-02-13T19:43:51.042Z,63.38
2023-02-13T19:46:52.672Z,63.44
2023-02-13T19:49:54.206Z,63.36
2023-02-13T19:52:55.777Z,63.40
2023-02-13T19:56:01.057Z,63.26
2023-02-13T19:59:04.018Z,63.32
2023-02-13T20:02:06.164Z,63.21
2023-02-13T20:05:08.867Z,63.27
2023-02-13T20:08:11.198Z,63.08
2023-02-13T20:11:15.193Z,63.17
2023-02-13T20:14:17.147Z,63.33
2023-02-13T20:17:18.744Z,63.35
2023-02-13T20:20:20.421Z,63.44
2023-02-13T20:23:22.268Z,63.48
2023-02-13T20:26:24.281Z,63.41
2023-02-13T20:29:25.992Z,63.41
2023-02-13T20:32:27.571Z,63.29
2023-02-13T20:35:29.244Z,63.22
2023-02-13T20:38:32.126Z,63.18
2023-02-13T20:41:35.838Z,63.13
2023-02-13T20:44:37.447Z,63.32
2023-02-13T20:47:40.406Z,63.17
2023-02-13T20:50:42.037Z,63.11
2023-02-13T20:53:44.771Z,63.21
2023-02-13T20:56:47.734Z,63.15
2023-02-13T20:59:49.320Z,63.30
2023-02-13T21:02:50.992Z,63.31
2023-02-13T21:05:52.981Z,63.33
2023-02-13T21:08:55.124Z,63.33
2023-02-13T21:11:56.740Z,63.24
2023-02-13T21:14:58.347Z,63.19
2023-02-13T21:18:01.799Z,63.35
2023-02-13T21:21:03.976Z,63.39
2023-02-13T21:24:08.500Z,63.16
2023-02-13T21:27:10.958Z,63.33
2023-02-13T21:30:13.036Z,63.32
2023-02-13T21:33:14.638Z,63.42
2023-02-13T21:36:16.229Z,63.47
2023-02-13T21:39:17.805Z,63.44
2023-02-13T21:42:19.815Z,63.32
2023-02-13T21:45:21.449Z,63.33
2023-02-13T21:48:23.005Z,63.47
2023-02-13T21:51:26.243Z,63.39
2023-02-13T21:54:27.837Z,63.79
2023-02-13T21:57:29.426Z,63.61
2023-02-13T22:00:31.105Z,63.68
2023-02-13T22:03:32.627Z,63.50
2023-02-13T22:06:36.539Z,63.26
2023-02-13T22:09:38.223Z,63.41
2023-02-13T22:12:39.766Z,63.49
2023-02-13T22:15:41.267Z,63.35
2023-02-13T22:18:44.353Z,63.56
2023-02-13T22:21:46.297Z,63.38
2023-02-13T22:24:47.825Z,63.35
2023-02-13T22:27:49.414Z,63.44
2023-02-13T22:30:51.366Z,63.33
2023-02-13T22:34:09.628Z,63.52
2023-02-13T22:37:12.688Z,63.51
2023-02-13T22:40:14.401Z,63.48
2023-02-13T22:43:15.978Z,63.45
2023-02-13T22:46:18.958Z,63.47
2023-02-13T22:49:20.530Z,63.45
2023-02-13T22:52:22.126Z,63.31
2023-02-13T22:55:23.786Z,63.43
2023-02-13T22:58:25.795Z,63.15
2023-02-13T23:01:28.338Z,63.32
2023-02-13T23:04:30.011Z,63.61
2023-02-13T23:07:31.945Z,63.39
2023-02-13T23:10:33.742Z,63.29
2023-02-13T23:13:35.352Z,63.32
2023-02-13T23:16:58.054Z,63.21
2023-02-13T23:19:59.625Z,63.15
2023-02-13T23:23:02.688Z,63.29
2023-02-13T23:26:07.581Z,63.11
2023-02-13T23:29:09.538Z,63.18
2023-02-13T23:32:11.181Z,63.41
2023-02-13T23:35:12.777Z,63.36
2023-02-13T23:38:14.349Z,63.53
2023-02-13T23:41:15.862Z,63.77
2023-02-13T23:44:17.449Z,63.54
2023-02-13T23:47:19.123Z,63.45
2023-02-13T23:50:20.863Z,63.78
2023-02-13T23:53:22.476Z,63.62
2023-02-13T23:56:25.071Z,63.81
2023-02-13T23:59:26.750Z,63.79
